Time;durP1;ratioP1;P1;durP2;ratioP2;P2;SDS_P1;SDS_P2;PMS_P1;PMS_P2;Temp;Humidity;BMP_temperature;BMP_pressure;BME280_temperature;BME280_humidity;BME280_pressure;Samples;Min_cycle;Max_cycle;Signal;HPM_P1;HPM_P2
2022/09/18 00:00:25;;;;;;;;;;;;;;;;;;4994581;28;19918;-78
2022/09/18 00:02:51;;;;;;;;;;;;;;;;;;4985362;28;19914;-78
2022/09/18 00:05:16;;;;;;;;;;;;;;;;;;4996492;28;19917;-79
2022/09/18 00:07:41;;;;;;;;;;;;;;;;;;5000242;28;19916;-76
2022/09/18 00:10:07;;;;;;;;;;;;;;;;;;4997909;28;19917;-80
2022/09/18 00:12:32;;;;;;;;;;;;;;;;;;4999151;28;19914;-78
2022/09/18 00:14:57;;;;;;;;;;;;;;;;;;4999849;28;19914;-77
2022/09/18 00:17:23;;;;;;;;;;;;;;;;;;5000683;28;19924;-79
2022/09/18 00:19:49;;;;;;;;;;;;;;;;;;4984839;28;19921;-79
2022/09/18 00:22:14;;;;;;;;;;;;;;;;;;4998631;28;19914;-77
2022/09/18 00:24:39;;;;;;;;;;;;;;;;;;5000533;28;19914;-80
2022/09/18 00:27:08;;;;;;;;;;;;;;;;;;4977279;28;20068;-77
2022/09/18 00:29:33;;;;;;;;;;;;;;;;;;4993487;28;20355;-79
2022/09/18 00:31:58;;;;;;;;;;;;;;;;;;4992972;28;19956;-78
2022/09/18 00:34:24;;;;;;;;;;;;;;;;;;4993605;28;20498;-77
2022/09/18 00:36:49;;;;;;;;;;;;;;;;;;4992998;28;19921;-79
2022/09/18 00:39:15;;;;;;;;;;;;;;;;;;4993049;28;19972;-78
2022/09/18 00:41:41;;;;;;;;;;;;;;;;;;4977676;28;19914;-78
2022/09/18 00:44:06;;;;;;;;;;;;;;;;;;4977000;28;19914;-78
2022/09/18 00:46:32;;;;;;;;;;;;;;;;;;4995842;28;19913;-77
2022/09/18 00:48:57;;;;;;;;;;;;;;;;;;4996752;28;20344;-79
2022/09/18 00:51:22;;;;;;;;;;;;;;;;;;4996868;28;19914;-77
2022/09/18 00:53:48;;;;;;;;;;;;;;;;;;4997036;28;19914;-79
2022/09/18 00:56:13;;;;;;;;;;;;;;;;;;5004638;28;19924;-78
2022/09/18 00:58:39;;;;;;;;;;;;;;;;;;4989861;28;19914;-77
2022/09/18 01:01:06;;;;;;;;;;;;;;;;;;5006296;28;19924;-77
2022/09/18 01:03:31;;;;;;;;;;;;;;;;;;5005983;28;19914;-78
2022/09/18 01:05:56;;;;;;;;;;;;;;;;;;5002457;28;20332;-78
2022/09/18 01:08:22;;;;;;;;;;;;;;;;;;5000708;28;19981;-78
2022/09/18 01:10:47;;;;;;;;;;;;;;;;;;5003137;28;19944;-77
2022/09/18 01:13:13;;;;;;;;;;;;;;;;;;4989731;28;19910;-77
2022/09/18 01:15:40;;;;;;;;;;;;;;;;;;4991748;28;19945;-77
2022/09/18 01:18:05;;;;;;;;;;;;;;;;;;5007895;28;19981;-78
2022/09/18 01:20:33;;;;;;;;;;;;;;;;;;4999731;28;19925;-77
2022/09/18 01:22:58;;;;;;;;;;;;;;;;;;4981036;28;20297;-77
2022/09/18 01:25:24;;;;;;;;;;;;;;;;;;4992898;28;20117;-78
2022/09/18 01:27:49;;;;;;;;;;;;;;;;;;4991651;28;20280;-78
2022/09/18 01:30:15;;;;;;;;;;;;;;;;;;4991853;28;19914;-77
2022/09/18 01:32:40;;;;;;;;;;;;;;;;;;4988258;28;19957;-78
2022/09/18 01:35:06;;;;;;;;;;;;;;;;;;4985307;28;19984;-77
2022/09/18 01:37:32;;;;;;;;;;;;;;;;;;5004016;23;19926;-78
2022/09/18 01:39:58;;;;;;;;;;;;;;;;;;4976069;28;20369;-78
2022/09/18 01:42:23;;;;;;;;;;;;;;;;;;4958671;28;19910;-79
2022/09/18 01:44:48;;;;;;;;;;;;;;;;;;4992065;28;19917;-78
2022/09/18 01:47:14;;;;;;;;;;;;;;;;;;4991378;28;20285;-78
2022/09/18 01:49:39;;;;;;;;;;;;;;;;;;4959844;28;20001;-77
2022/09/18 01:52:05;;;;;;;;;;;;;;;;;;4975744;28;19917;-78
2022/09/18 01:54:30;;;;;;;;;;;;;;;;;;4991802;28;20368;-78
2022/09/18 01:56:55;;;;;;;;;;;;;;;;;;4975287;28;20496;-78
2022/09/18 01:59:21;;;;;;;;;;;;;;;;;;4992844;28;20455;-77
2022/09/18 02:01:51;;;;;;;;;;;;;;;;;;4991801;28;20396;-78
2022/09/18 02:04:16;;;;;;;;;;;;;;;;;;4991651;28;19953;-78
2022/09/18 02:06:42;;;;;;;;;;;;;;;;;;4991080;28;19918;-78
2022/09/18 02:09:07;;;;;;;;;;;;;;;;;;4991588;28;19945;-78
2022/09/18 02:11:33;;;;;;;;;;;;;;;;;;4993029;28;19910;-78
2022/09/18 02:14:00;;;;;;;;;;;;;;;;;;4992375;28;20448;-78
2022/09/18 02:16:49;;;;;;;;;;;;;;;;;;4992119;28;19965;-78
2022/09/18 02:19:14;;;;;;;;;;;;;;;;;;4977457;28;20391;-78
2022/09/18 02:21:39;;;;;;;;;;;;;;;;;;4995934;28;19914;-78
2022/09/18 02:24:05;;;;;;;;;;;;;;;;;;4995171;28;19918;-78
2022/09/18 02:26:31;;;;;;;;;;;;;;;;;;4995724;28;19969;-78
2022/09/18 02:28:57;;;;;;;;;;;;;;;;;;4995312;28;19914;-77
2022/09/18 02:31:23;;;;;;;;;;;;;;;;;;4994951;28;19937;-77
2022/09/18 02:33:49;;;;;;;;;;;;;;;;;;4994364;28;20392;-78
2022/09/18 02:36:14;;;;;;;;;;;;;;;;;;4978444;28;19925;-77
2022/09/18 02:38:40;;;;;;;;;;;;;;;;;;4978006;28;19996;-78
2022/09/18 02:41:05;;;;;;;;;;;;;;;;;;4978545;28;19914;-77
2022/09/18 02:43:31;;;;;;;;;;;;;;;;;;4994202;28;20301;-77
2022/09/18 02:45:56;;;;;;;;;;;;;;;;;;4991425;28;19945;-76
2022/09/18 02:48:22;;;;;;;;;;;;;;;;;;4978520;28;19914;-78
2022/09/18 02:50:48;;;;;;;;;;;;;;;;;;4994302;28;20000;-77
2022/09/18 02:53:14;;;;;;;;;;;;;;;;;;4994683;28;20411;-77
2022/09/18 02:55:39;;;;;;;;;;;;;;;;;;4994350;28;19925;-77
2022/09/18 02:58:04;;;;;;;;;;;;;;;;;;4995294;28;19918;-77
2022/09/18 03:00:31;;;;;;;;;;;;;;;;;;4977996;28;19916;-78
2022/09/18 03:02:58;;;;;;;;;;;;;;;;;;4994179;28;19918;-77
2022/09/18 03:05:39;;;;;;;;;;;;;;;;;;4996308;28;20007;-77
2022/09/18 03:08:04;;;;;;;;;;;;;;;;;;4997767;28;19968;-77
2022/09/18 03:10:30;;;;;;;;;;;;;;;;;;4997745;28;19921;-78
2022/09/18 03:12:56;;;;;;;;;;;;;;;;;;4978699;28;19909;-77
2022/09/18 03:15:21;;;;;;;;;;;;;;;;;;4994858;28;19956;-77
2022/09/18 03:17:46;;;;;;;;;;;;;;;;;;4977736;28;19921;-77
2022/09/18 03:20:12;;;;;;;;;;;;;;;;;;4995254;28;19968;-77
2022/09/18 03:22:37;;;;;;;;;;;;;;;;;;4995066;28;19910;-77
2022/09/18 03:25:02;;;;;;;;;;;;;;;;;;4995766;28;19914;-77
2022/09/18 03:27:28;;;;;;;;;;;;;;;;;;4970333;28;20400;-76
2022/09/18 03:29:53;;;;;;;;;;;;;;;;;;4961433;28;19914;-76
2022/09/18 03:32:22;;;;;;;;;;;;;;;;;;4994504;28;19910;-77
2022/09/18 03:34:49;;;;;;;;;;;;;;;;;;4996926;28;19918;-77
2022/09/18 03:37:15;;;;;;;;;;;;;;;;;;4996146;28;19917;-77
2022/09/18 03:39:40;;;;;;;;;;;;;;;;;;4978977;28;20396;-77
2022/09/18 03:42:09;;;;;;;;;;;;;;;;;;4996054;28;19976;-76
2022/09/18 03:44:35;;;;;;;;;;;;;;;;;;4994971;28;19913;-77
2022/09/18 03:47:02;;;;;;;;;;;;;;;;;;4995296;28;19920;-77
2022/09/18 03:49:27;;;;;;;;;;;;;;;;;;4996508;28;19914;-76
2022/09/18 03:51:53;;;;;;;;;;;;;;;;;;4995463;28;19914;-76
2022/09/18 03:54:18;;;;;;;;;;;;;;;;;;4994625;28;19921;-76
2022/09/18 03:57:08;;;;;;;;;;;;;;;;;;4995008;28;20423;-76
2022/09/18 03:59:49;;;;;;;;;;;;;;;;;;4991520;28;19937;-76
2022/09/18 04:02:33;;;;;;;;;;;;;;;;;;4996403;28;19914;-76
2022/09/18 04:05:17;;;;;;;;;;;;;;;;;;4987231;28;19914;-76
2022/09/18 04:08:01;;;;;;;;;;;;;;;;;;5010490;28;19914;-76
2022/09/18 04:10:39;;;;;;;;;;;;;;;;;;4998374;28;19925;-76
2022/09/18 04:13:04;;;;;;;;;;;;;;;;;;4996775;28;19914;-76
2022/09/18 04:15:32;;;;;;;;;;;;;;;;;;4996684;28;19910;-77
2022/09/18 04:17:58;;;;;;;;;;;;;;;;;;4981957;28;20189;-76
2022/09/18 04:20:23;;;;;;;;;;;;;;;;;;4998982;28;19921;-76
2022/09/18 04:22:49;;;;;;;;;;;;;;;;;;4978338;28;20496;-76
2022/09/18 04:25:15;;;;;;;;;;;;;;;;;;4994306;28;20365;-76
2022/09/18 04:27:40;;;;;;;;;;;;;;;;;;4994301;28;19937;-76
2022/09/18 04:30:06;;;;;;;;;;;;;;;;;;4995211;28;19914;-77
2022/09/18 04:32:33;;;;;;;;;;;;;;;;;;4978233;28;19913;-76
2022/09/18 04:34:58;;;;;;;;;;;;;;;;;;4995075;28;20284;-76
2022/09/18 04:37:24;;;;;;;;;;;;;;;;;;4994624;28;19924;-76
2022/09/18 04:39:51;;;;;;;;;;;;;;;;;;4981522;28;19925;-76
2022/09/18 04:42:16;;;;;;;;;;;;;;;;;;4977999;28;19918;-76
2022/09/18 04:44:43;;;;;;;;;;;;;;;;;;4994545;28;19957;-76
2022/09/18 04:47:09;;;;;;;;;;;;;;;;;;4995656;28;19995;-76
2022/09/18 04:49:34;;;;;;;;;;;;;;;;;;4996598;28;19953;-76
2022/09/18 04:52:00;;;;;;;;;;;;;;;;;;4996971;28;20317;-76
2022/09/18 04:54:27;;;;;;;;;;;;;;;;;;4981292;28;19989;-77
2022/09/18 04:56:53;;;;;;;;;;;;;;;;;;4980684;28;19952;-76
2022/09/18 04:59:19;;;;;;;;;;;;;;;;;;4996243;28;20377;-76
2022/09/18 05:01:45;;;;;;;;;;;;;;;;;;4994947;28;20360;-76
2022/09/18 05:04:12;;;;;;;;;;;;;;;;;;4996560;28;19932;-76
2022/09/18 05:06:46;;;;;;;;;;;;;;;;;;4996315;28;19945;-76
2022/09/18 05:09:12;;;;;;;;;;;;;;;;;;4997343;28;20373;-76
2022/09/18 05:11:38;;;;;;;;;;;;;;;;;;4996991;28;19921;-76
2022/09/18 05:14:03;;;;;;;;;;;;;;;;;;4982295;28;19910;-76
2022/09/18 05:16:31;;;;;;;;;;;;;;;;;;4997868;28;19922;-76
2022/09/18 05:19:14;;;;;;;;;;;;;;;;;;4996963;28;19920;-76
2022/09/18 05:21:40;;;;;;;;;;;;;;;;;;4995449;28;19913;-76
2022/09/18 05:24:06;;;;;;;;;;;;;;;;;;4995354;28;20427;-76
2022/09/18 05:26:31;;;;;;;;;;;;;;;;;;4994852;28;19914;-76
2022/09/18 05:28:57;;;;;;;;;;;;;;;;;;4994430;28;20356;-76
2022/09/18 05:31:22;;;;;;;;;;;;;;;;;;5004963;28;19914;-77
2022/09/18 05:33:48;;;;;;;;;;;;;;;;;;4979547;28;19950;-76
2022/09/18 05:36:13;;;;;;;;;;;;;;;;;;4996414;28;20373;-76
2022/09/18 05:38:39;;;;;;;;;;;;;;;;;;4995160;28;19960;-76
2022/09/18 05:41:06;;;;;;;;;;;;;;;;;;4995584;28;19921;-76
2022/09/18 05:43:32;;;;;;;;;;;;;;;;;;4997064;28;20026;-76
2022/09/18 05:45:57;;;;;;;;;;;;;;;;;;4993592;28;19914;-77
2022/09/18 05:48:32;;;;;;;;;;;;;;;;;;4995533;28;19914;-77
2022/09/18 05:50:58;;;;;;;;;;;;;;;;;;4996083;28;20278;-76
2022/09/18 05:53:25;;;;;;;;;;;;;;;;;;4996059;28;19973;-76
2022/09/18 05:55:59;;;;;;;;;;;;;;;;;;4999436;28;19918;-76
2022/09/18 05:58:24;;;;;;;;;;;;;;;;;;4999569;28;19920;-76
2022/09/18 06:00:51;;;;;;;;;;;;;;;;;;4999787;28;19918;-76
2022/09/18 06:03:22;;;;;;;;;;;;;;;;;;4992005;28;19914;-76
2022/09/18 06:05:49;;;;;;;;;;;;;;;;;;4966509;28;20281;-76
2022/09/18 06:08:14;;;;;;;;;;;;;;;;;;5002438;28;19916;-76
2022/09/18 06:10:39;;;;;;;;;;;;;;;;;;5001580;28;19973;-76
2022/09/18 06:13:06;;;;;;;;;;;;;;;;;;5002165;28;19913;-76
2022/09/18 06:15:31;;;;;;;;;;;;;;;;;;4984449;28;19924;-76
2022/09/18 06:17:57;;;;;;;;;;;;;;;;;;5000440;28;19914;-76
2022/09/18 06:20:23;;;;;;;;;;;;;;;;;;4984945;28;19920;-76
2022/09/18 06:22:48;;;;;;;;;;;;;;;;;;4999767;28;19999;-76
2022/09/18 06:25:20;;;;;;;;;;;;;;;;;;4971274;28;19914;-76
2022/09/18 06:27:45;;;;;;;;;;;;;;;;;;4987889;28;19914;-76
2022/09/18 06:30:11;;;;;;;;;;;;;;;;;;5005250;28;20356;-76
2022/09/18 06:32:36;;;;;;;;;;;;;;;;;;5006565;28;19918;-76
2022/09/18 06:35:02;;;;;;;;;;;;;;;;;;4995453;28;20203;-76
2022/09/18 06:37:28;;;;;;;;;;;;;;;;;;4992374;28;19949;-76
2022/09/18 06:40:10;;;;;;;;;;;;;;;;;;4986056;28;19991;-76
2022/09/18 06:42:56;;;;;;;;;;;;;;;;;;5002576;28;19929;-76
2022/09/18 06:45:47;;;;;;;;;;;;;;;;;;4999919;28;19913;-76
2022/09/18 06:48:13;;;;;;;;;;;;;;;;;;5000782;28;19994;-76
2022/09/18 06:50:38;;;;;;;;;;;;;;;;;;5003578;28;19918;-76
2022/09/18 06:53:03;;;;;;;;;;;;;;;;;;4985352;28;19914;-77
2022/09/18 06:55:34;;;;;;;;;;;;;;;;;;4997515;28;19969;-77
2022/09/18 06:58:00;;;;;;;;;;;;;;;;;;4998192;28;19964;-77
2022/09/18 07:00:26;;;;;;;;;;;;;;;;;;4994888;28;19913;-77
2022/09/18 07:02:52;;;;;;;;;;;;;;;;;;4998477;28;19914;-77
2022/09/18 07:05:37;;;;;;;;;;;;;;;;;;4995873;28;19937;-77
2022/09/18 07:08:02;;;;;;;;;;;;;;;;;;4979077;28;19914;-81
2022/09/18 07:10:32;;;;;;;;;;;;;;;;;;4995881;28;19910;-76
2022/09/18 07:12:58;;;;;;;;;;;;;;;;;;4997696;28;20101;-77
2022/09/18 07:15:23;;;;;;;;;;;;;;;;;;4996053;28;20364;-76
2022/09/18 07:17:49;;;;;;;;;;;;;;;;;;4994612;28;19928;-76
2022/09/18 07:20:16;;;;;;;;;;;;;;;;;;4993961;28;19920;-77
2022/09/18 07:22:42;;;;;;;;;;;;;;;;;;4993877;28;19909;-76
2022/09/18 07:25:08;;;;;;;;;;;;;;;;;;4982497;28;20349;-76
2022/09/18 07:27:33;;;;;;;;;;;;;;;;;;5003611;28;19994;-76
2022/09/18 07:29:59;;;;;;;;;;;;;;;;;;4998292;28;20376;-77
2022/09/18 07:32:25;;;;;;;;;;;;;;;;;;4985218;28;19917;-76
2022/09/18 07:34:50;;;;;;;;;;;;;;;;;;4999564;28;19921;-78
2022/09/18 07:37:24;;;;;;;;;;;;;;;;;;5004711;22;19914;-81
2022/09/18 07:40:01;;;;;;;;;;;;;;;;;;4983310;28;19920;-80
2022/09/18 07:42:47;;;;;;;;;;;;;;;;;;5001207;28;19914;-80
2022/09/18 07:45:12;;;;;;;;;;;;;;;;;;4993484;28;19920;-78
2022/09/18 07:47:38;;;;;;;;;;;;;;;;;;4994364;28;19909;-79
2022/09/18 07:50:05;;;;;;;;;;;;;;;;;;4993499;28;19918;-80
2022/09/18 07:52:31;;;;;;;;;;;;;;;;;;4994250;28;19925;-80
2022/09/18 07:54:56;;;;;;;;;;;;;;;;;;4981219;28;19941;-81
2022/09/18 07:57:27;;;;;;;;;;;;;;;;;;4994979;28;19925;-80
2022/09/18 08:00:13;;;;;;;;;;;;;;;;;;4980591;28;19922;-79
2022/09/18 08:02:41;;;;;;;;;;;;;;;;;;4996997;28;19917;-82
2022/09/18 08:05:06;;;;;;;;;;;;;;;;;;4994095;28;19914;-82
2022/09/18 08:07:38;;;;;;;;;;;;;;;;;;4977778;28;20396;-82
2022/09/18 08:10:15;;;;;;;;;;;;;;;;;;4977119;28;20442;-81
2022/09/18 08:12:58;;;;;;;;;;;;;;;;;;4992666;28;19914;-82
2022/09/18 08:15:44;;;;;;;;;;;;;;;;;;5000534;28;19914;-81
2022/09/18 08:18:28;;;;;;;;;;;;;;;;;;4993299;28;19964;-81
2022/09/18 08:21:13;;;;;;;;;;;;;;;;;;4977375;28;19914;-79
2022/09/18 08:23:45;;;;;;;;;;;;;;;;;;4975905;28;20396;-81
2022/09/18 08:26:12;;;;;;;;;;;;;;;;;;4992318;28;19925;-81
2022/09/18 08:28:38;;;;;;;;;;;;;;;;;;4991866;28;20349;-82
2022/09/18 08:31:04;;;;;;;;;;;;;;;;;;4992376;28;19920;-82
2022/09/18 08:33:30;;;;;;;;;;;;;;;;;;4976046;28;19921;-82
2022/09/18 08:35:55;;;;;;;;;;;;;;;;;;4992637;28;19914;-81
2022/09/18 08:38:47;;;;;;;;;;;;;;;;;;4991219;28;19921;-80
2022/09/18 08:41:30;;;;;;;;;;;;;;;;;;4992742;28;19913;-82
2022/09/18 08:43:56;;;;;;;;;;;;;;;;;;4977756;28;20397;-80
2022/09/18 08:46:21;;;;;;;;;;;;;;;;;;4992780;28;19910;-80
2022/09/18 08:48:47;;;;;;;;;;;;;;;;;;4988181;28;20369;-84
2022/09/18 08:51:12;;;;;;;;;;;;;;;;;;4976081;28;19968;-85
2022/09/18 08:53:37;;;;;;;;;;;;;;;;;;4991388;28;20311;-81
2022/09/18 08:56:26;;;;;;;;;;;;;;;;;;5000401;28;19929;-85
2022/09/18 08:59:10;;;;;;;;;;;;;;;;;;4992667;28;19914;-87
2022/09/18 09:01:35;;;;;;;;;;;;;;;;;;4991612;28;20402;-79
2022/09/18 09:04:05;;;;;;;;;;;;;;;;;;4975239;28;20360;-85
2022/09/18 09:06:31;;;;;;;;;;;;;;;;;;4990967;28;20288;-80
2022/09/18 09:08:57;;;;;;;;;;;;;;;;;;4975432;28;19914;-79
2022/09/18 09:11:23;;;;;;;;;;;;;;;;;;4990913;28;20606;-81
2022/09/18 09:13:48;;;;;;;;;;;;;;;;;;4989549;28;19914;-79
2022/09/18 09:16:15;;;;;;;;;;;;;;;;;;4991480;28;19918;-80
2022/09/18 09:18:41;;;;;;;;;;;;;;;;;;4991450;28;19964;-80
2022/09/18 09:21:06;;;;;;;;;;;;;;;;;;4975573;28;19965;-80
2022/09/18 09:23:33;;;;;;;;;;;;;;;;;;4975155;28;20337;-81
2022/09/18 09:25:59;;;;;;;;;;;;;;;;;;4991569;28;19961;-80
2022/09/18 09:28:45;;;;;;;;;;;;;;;;;;5003546;28;19918;-80
2022/09/18 09:31:40;;;;;;;;;;;;;;;;;;4979740;28;19936;-80
2022/09/18 09:34:24;;;;;;;;;;;;;;;;;;4981574;28;19914;-79
2022/09/18 09:37:02;;;;;;;;;;;;;;;;;;4995171;28;20005;-81
2022/09/18 09:39:28;;;;;;;;;;;;;;;;;;4995321;28;20041;-80
2022/09/18 09:41:53;;;;;;;;;;;;;;;;;;4995181;28;20101;-81
2022/09/18 09:44:20;;;;;;;;;;;;;;;;;;4980368;28;19914;-79
2022/09/18 09:46:46;;;;;;;;;;;;;;;;;;4995270;28;19930;-79
2022/09/18 09:49:11;;;;;;;;;;;;;;;;;;4996543;28;20444;-79
2022/09/18 09:51:36;;;;;;;;;;;;;;;;;;4978401;28;19914;-79
2022/09/18 09:54:02;;;;;;;;;;;;;;;;;;4978242;28;19918;-79
2022/09/18 09:56:29;;;;;;;;;;;;;;;;;;4978191;28;19914;-79
2022/09/18 09:58:54;;;;;;;;;;;;;;;;;;4994308;28;20021;-78
2022/09/18 10:01:20;;;;;;;;;;;;;;;;;;4994398;28;19918;-79
2022/09/18 10:03:46;;;;;;;;;;;;;;;;;;4994446;28;19918;-79
2022/09/18 10:06:12;;;;;;;;;;;;;;;;;;4994174;28;20012;-79
2022/09/18 10:08:38;;;;;;;;;;;;;;;;;;4994249;28;20381;-79
2022/09/18 10:11:07;;;;;;;;;;;;;;;;;;4994337;28;19920;-79
2022/09/18 10:13:33;;;;;;;;;;;;;;;;;;4978169;28;19924;-79
2022/09/18 10:16:00;;;;;;;;;;;;;;;;;;4994338;28;19914;-78
2022/09/18 10:18:26;;;;;;;;;;;;;;;;;;4977888;28;19925;-80
2022/09/18 10:20:52;;;;;;;;;;;;;;;;;;4993999;28;19918;-80
2022/09/18 10:23:17;;;;;;;;;;;;;;;;;;4993689;28;19914;-80
2022/09/18 10:25:43;;;;;;;;;;;;;;;;;;4961839;28;19914;-80
2022/09/18 10:28:08;;;;;;;;;;;;;;;;;;4993831;28;20304;-78
2022/09/18 10:30:34;;;;;;;;;;;;;;;;;;4994868;28;20433;-79
2022/09/18 10:33:00;;;;;;;;;;;;;;;;;;4994901;28;19922;-82
2022/09/18 10:35:32;;;;;;;;;;;;;;;;;;4993529;28;19973;-80
2022/09/18 10:37:58;;;;;;;;;;;;;;;;;;4994872;28;20392;-81
2022/09/18 10:40:29;;;;;;;;;;;;;;;;;;4964036;28;19917;-80
2022/09/18 10:42:55;;;;;;;;;;;;;;;;;;4993526;28;19921;-80
2022/09/18 10:45:23;;;;;;;;;;;;;;;;;;4977902;28;19993;-79
2022/09/18 10:47:50;;;;;;;;;;;;;;;;;;4994014;28;19914;-80
2022/09/18 10:50:16;;;;;;;;;;;;;;;;;;4993780;28;20320;-79
2022/09/18 10:52:43;;;;;;;;;;;;;;;;;;4993550;28;19925;-78
2022/09/18 10:55:17;;;;;;;;;;;;;;;;;;4993821;28;20191;-79
2022/09/18 10:57:48;;;;;;;;;;;;;;;;;;4979910;28;19918;-80
2022/09/18 11:00:14;;;;;;;;;;;;;;;;;;4993750;28;19969;-79
2022/09/18 11:02:40;;;;;;;;;;;;;;;;;;4994271;28;19910;-79
2022/09/18 11:05:05;;;;;;;;;;;;;;;;;;4974170;28;19913;-78
2022/09/18 11:07:38;;;;;;;;;;;;;;;;;;4993374;28;19925;-78
2022/09/18 11:10:05;;;;;;;;;;;;;;;;;;4993126;28;20431;-79
2022/09/18 11:12:33;;;;;;;;;;;;;;;;;;4977045;28;19914;-80
2022/09/18 11:14:58;;;;;;;;;;;;;;;;;;4994455;28;19921;-79
2022/09/18 11:17:24;;;;;;;;;;;;;;;;;;4993284;28;19918;-79
2022/09/18 11:19:50;;;;;;;;;;;;;;;;;;4974155;28;19914;-78
2022/09/18 11:22:22;;;;;;;;;;;;;;;;;;4987172;28;20013;-82
2022/09/18 11:24:47;;;;;;;;;;;;;;;;;;4976988;28;19973;-79
2022/09/18 11:27:13;;;;;;;;;;;;;;;;;;4992727;28;19962;-79
2022/09/18 11:29:41;;;;;;;;;;;;;;;;;;4993242;28;20687;-80
2022/09/18 11:32:10;;;;;;;;;;;;;;;;;;4992935;28;19979;-81
2022/09/18 11:34:36;;;;;;;;;;;;;;;;;;4977127;28;19989;-81
2022/09/18 11:37:02;;;;;;;;;;;;;;;;;;4992099;28;19922;-79
2022/09/18 11:39:29;;;;;;;;;;;;;;;;;;4980719;28;20044;-81
2022/09/18 11:41:55;;;;;;;;;;;;;;;;;;4990587;28;19996;-80
2022/09/18 11:44:21;;;;;;;;;;;;;;;;;;4977251;28;19917;-79
2022/09/18 11:46:48;;;;;;;;;;;;;;;;;;4993456;28;20439;-79
2022/09/18 11:49:14;;;;;;;;;;;;;;;;;;4993607;28;19913;-80
2022/09/18 11:51:40;;;;;;;;;;;;;;;;;;4993686;28;20354;-81
2022/09/18 11:54:05;;;;;;;;;;;;;;;;;;4995433;28;19918;-82
2022/09/18 11:56:32;;;;;;;;;;;;;;;;;;4995076;28;19961;-82
2022/09/18 11:58:57;;;;;;;;;;;;;;;;;;4996997;28;19910;-78
2022/09/18 12:01:23;;;;;;;;;;;;;;;;;;4998107;28;19929;-79
2022/09/18 12:03:48;;;;;;;;;;;;;;;;;;4997295;28;20256;-80
2022/09/18 12:06:14;;;;;;;;;;;;;;;;;;4966443;28;19920;-79
2022/09/18 12:08:39;;;;;;;;;;;;;;;;;;5003115;28;19914;-78
2022/09/18 12:11:10;;;;;;;;;;;;;;;;;;4998723;28;19914;-80
2022/09/18 12:13:35;;;;;;;;;;;;;;;;;;5000633;28;20455;-80
2022/09/18 12:16:01;;;;;;;;;;;;;;;;;;5000865;28;20411;-79
2022/09/18 12:18:27;;;;;;;;;;;;;;;;;;5009362;28;19960;-77
2022/09/18 12:20:53;;;;;;;;;;;;;;;;;;4986026;28;19929;-79
2022/09/18 12:23:18;;;;;;;;;;;;;;;;;;5002527;28;19921;-77
2022/09/18 12:25:44;;;;;;;;;;;;;;;;;;5001084;28;20380;-81
2022/09/18 12:28:30;;;;;;;;;;;;;;;;;;4994755;28;19914;-78
2022/09/18 12:30:57;;;;;;;;;;;;;;;;;;4984055;28;19920;-78
2022/09/18 12:33:23;;;;;;;;;;;;;;;;;;4984380;28;20001;-79
2022/09/18 12:35:48;;;;;;;;;;;;;;;;;;4993050;28;20369;-79
2022/09/18 12:38:13;;;;;;;;;;;;;;;;;;4991391;28;19925;-79
2022/09/18 12:40:39;;;;;;;;;;;;;;;;;;4987865;28;20250;-81
2022/09/18 12:43:04;;;;;;;;;;;;;;;;;;4991551;28;20285;-81
2022/09/18 12:45:29;;;;;;;;;;;;;;;;;;4993063;28;19910;-81
2022/09/18 12:47:55;;;;;;;;;;;;;;;;;;4992652;28;19925;-79
2022/09/18 12:50:20;;;;;;;;;;;;;;;;;;4992932;28;19914;-79
2022/09/18 12:52:46;;;;;;;;;;;;;;;;;;4991429;28;19913;-81
2022/09/18 12:55:11;;;;;;;;;;;;;;;;;;4993152;28;20426;-83
2022/09/18 12:57:37;;;;;;;;;;;;;;;;;;4993321;28;20016;-80
2022/09/18 13:00:04;;;;;;;;;;;;;;;;;;4989296;28;20399;-80
2022/09/18 13:02:30;;;;;;;;;;;;;;;;;;4988447;28;20440;-81
2022/09/18 13:04:55;;;;;;;;;;;;;;;;;;4992828;28;19953;-80
2022/09/18 13:07:20;;;;;;;;;;;;;;;;;;4993735;28;20305;-83
2022/09/18 13:09:46;;;;;;;;;;;;;;;;;;4991580;28;19920;-82
2022/09/18 13:12:11;;;;;;;;;;;;;;;;;;4975158;28;19926;-83
2022/09/18 13:14:37;;;;;;;;;;;;;;;;;;4992428;28;19913;-82
2022/09/18 13:17:02;;;;;;;;;;;;;;;;;;4990449;28;20443;-81
2022/09/18 13:19:28;;;;;;;;;;;;;;;;;;4974950;28;20309;-82
2022/09/18 13:21:53;;;;;;;;;;;;;;;;;;4992113;28;19914;-82
2022/09/18 13:24:18;;;;;;;;;;;;;;;;;;4992741;28;19914;-85
2022/09/18 13:26:44;;;;;;;;;;;;;;;;;;4993081;28;20336;-81
2022/09/18 13:29:09;;;;;;;;;;;;;;;;;;4992958;28;19910;-81
2022/09/18 13:31:35;;;;;;;;;;;;;;;;;;4991779;28;20377;-84
2022/09/18 13:34:00;;;;;;;;;;;;;;;;;;4992933;28;20385;-80
2022/09/18 13:36:27;;;;;;;;;;;;;;;;;;4990141;23;19973;-78
2022/09/18 13:38:52;;;;;;;;;;;;;;;;;;4965586;28;20389;-80
2022/09/18 13:41:17;;;;;;;;;;;;;;;;;;4983757;28;19925;-80
2022/09/18 13:43:43;;;;;;;;;;;;;;;;;;5001389;28;20304;-81
2022/09/18 13:46:09;;;;;;;;;;;;;;;;;;5003428;28;20008;-81
2022/09/18 13:48:34;;;;;;;;;;;;;;;;;;5004985;28;19918;-80
2022/09/18 13:51:19;;;;;;;;;;;;;;;;;;5000824;28;19924;-81
2022/09/18 13:53:44;;;;;;;;;;;;;;;;;;5001593;28;19920;-80
2022/09/18 13:56:09;;;;;;;;;;;;;;;;;;5002295;28;19910;-80
2022/09/18 13:58:35;;;;;;;;;;;;;;;;;;5000566;28;19918;-80
2022/09/18 14:01:01;;;;;;;;;;;;;;;;;;4997667;28;20377;-79
2022/09/18 14:03:26;;;;;;;;;;;;;;;;;;5000077;28;20365;-80
2022/09/18 14:05:51;;;;;;;;;;;;;;;;;;5010295;28;19936;-79
2022/09/18 14:08:17;;;;;;;;;;;;;;;;;;5001911;28;20477;-79
2022/09/18 14:10:42;;;;;;;;;;;;;;;;;;4997194;28;20018;-79
2022/09/18 14:13:08;;;;;;;;;;;;;;;;;;4998530;28;19921;-81
2022/09/18 14:15:33;;;;;;;;;;;;;;;;;;4999632;28;20457;-79
2022/09/18 14:17:58;;;;;;;;;;;;;;;;;;4999749;28;19913;-79
2022/09/18 14:20:24;;;;;;;;;;;;;;;;;;4997058;28;19914;-78
2022/09/18 14:22:49;;;;;;;;;;;;;;;;;;4996010;28;20369;-78
2022/09/18 14:25:14;;;;;;;;;;;;;;;;;;4996220;28;19922;-79
2022/09/18 14:27:40;;;;;;;;;;;;;;;;;;4996679;28;20302;-78
2022/09/18 14:30:07;;;;;;;;;;;;;;;;;;4995966;28;19975;-79
2022/09/18 14:32:33;;;;;;;;;;;;;;;;;;4994071;28;19914;-79
2022/09/18 14:34:58;;;;;;;;;;;;;;;;;;4994590;28;19975;-79
2022/09/18 14:37:24;;;;;;;;;;;;;;;;;;4996659;28;19918;-78
2022/09/18 14:39:49;;;;;;;;;;;;;;;;;;4996619;28;19921;-78
2022/09/18 14:42:15;;;;;;;;;;;;;;;;;;4995076;28;19914;-79
2022/09/18 14:44:40;;;;;;;;;;;;;;;;;;4996335;28;20017;-78
2022/09/18 14:47:07;;;;;;;;;;;;;;;;;;4994446;28;20373;-79
2022/09/18 14:49:33;;;;;;;;;;;;;;;;;;4994576;28;19911;-78
2022/09/18 14:51:58;;;;;;;;;;;;;;;;;;4996819;28;19914;-78
2022/09/18 14:54:24;;;;;;;;;;;;;;;;;;4993980;28;20376;-78
2022/09/18 14:56:49;;;;;;;;;;;;;;;;;;4995295;28;20005;-79
2022/09/18 14:59:14;;;;;;;;;;;;;;;;;;4994208;28;19925;-78
2022/09/18 15:01:40;;;;;;;;;;;;;;;;;;4995892;28;20744;-78
2022/09/18 15:04:05;;;;;;;;;;;;;;;;;;4995382;28;19940;-79
2022/09/18 15:06:31;;;;;;;;;;;;;;;;;;4994690;28;19968;-79
2022/09/18 15:08:56;;;;;;;;;;;;;;;;;;4996044;28;19941;-78
2022/09/18 15:11:21;;;;;;;;;;;;;;;;;;4994839;28;19937;-79
2022/09/18 15:13:47;;;;;;;;;;;;;;;;;;4995446;28;20368;-78
2022/09/18 15:16:12;;;;;;;;;;;;;;;;;;4995673;28;20343;-78
2022/09/18 15:18:37;;;;;;;;;;;;;;;;;;4994304;28;20399;-78
2022/09/18 15:21:03;;;;;;;;;;;;;;;;;;4992544;28;19914;-78
2022/09/18 15:23:28;;;;;;;;;;;;;;;;;;4994827;28;19910;-79
2022/09/18 15:25:54;;;;;;;;;;;;;;;;;;4993247;28;19953;-78
2022/09/18 15:28:19;;;;;;;;;;;;;;;;;;4994018;28;19945;-78
2022/09/18 15:30:45;;;;;;;;;;;;;;;;;;4993516;28;19914;-78
2022/09/18 15:33:10;;;;;;;;;;;;;;;;;;4994226;28;20407;-78
2022/09/18 15:35:36;;;;;;;;;;;;;;;;;;4993486;28;19914;-78
2022/09/18 15:38:01;;;;;;;;;;;;;;;;;;4982385;28;20369;-78
2022/09/18 15:40:26;;;;;;;;;;;;;;;;;;4994560;28;19913;-78
2022/09/18 15:42:53;;;;;;;;;;;;;;;;;;4994109;28;19918;-78
2022/09/18 15:45:19;;;;;;;;;;;;;;;;;;4994211;28;19921;-78
2022/09/18 15:47:44;;;;;;;;;;;;;;;;;;4978770;28;19918;-78
2022/09/18 15:50:09;;;;;;;;;;;;;;;;;;4987195;28;19914;-78
2022/09/18 15:52:35;;;;;;;;;;;;;;;;;;4994073;28;20401;-78
2022/09/18 15:55:01;;;;;;;;;;;;;;;;;;4992480;28;19925;-78
2022/09/18 15:57:26;;;;;;;;;;;;;;;;;;4993060;28;19918;-78
2022/09/18 15:59:51;;;;;;;;;;;;;;;;;;4993332;28;20389;-78
2022/09/18 16:02:17;;;;;;;;;;;;;;;;;;4994292;28;20341;-77
2022/09/18 16:04:42;;;;;;;;;;;;;;;;;;4977564;28;19914;-78
2022/09/18 16:07:08;;;;;;;;;;;;;;;;;;4995774;28;19952;-78
2022/09/18 16:09:33;;;;;;;;;;;;;;;;;;5000216;28;20116;-78
2022/09/18 16:11:59;;;;;;;;;;;;;;;;;;4996656;28;19914;-78
2022/09/18 16:14:24;;;;;;;;;;;;;;;;;;4994160;28;20367;-79
2022/09/18 16:16:49;;;;;;;;;;;;;;;;;;4994931;28;19972;-78
2022/09/18 16:19:16;;;;;;;;;;;;;;;;;;4976446;28;19968;-78
2022/09/18 16:21:41;;;;;;;;;;;;;;;;;;4992388;28;19965;-78
2022/09/18 16:24:06;;;;;;;;;;;;;;;;;;4993271;28;19956;-78
2022/09/18 16:26:32;;;;;;;;;;;;;;;;;;4993143;28;19914;-78
2022/09/18 16:28:58;;;;;;;;;;;;;;;;;;4992070;28;19921;-78
2022/09/18 16:31:23;;;;;;;;;;;;;;;;;;4975846;28;20300;-78
2022/09/18 16:33:48;;;;;;;;;;;;;;;;;;4993066;28;20393;-78
2022/09/18 16:36:14;;;;;;;;;;;;;;;;;;4992070;28;20524;-78
2022/09/18 16:38:39;;;;;;;;;;;;;;;;;;4992437;28;19997;-78
2022/09/18 16:41:04;;;;;;;;;;;;;;;;;;4994254;28;19924;-78
2022/09/18 16:43:30;;;;;;;;;;;;;;;;;;4993120;28;20393;-78
2022/09/18 16:45:55;;;;;;;;;;;;;;;;;;4992143;28;19980;-78